sensor_id;sensor_type;location;lat;lon;timestamp;temperature;humidity
22716;DHT22;11525;51.152;4.456;2024-03-06T00:00:48;9.20;99.90
22716;DHT22;11525;51.152;4.456;2024-03-06T00:03:13;9.20;99.90
22716;DHT22;11525;51.152;4.456;2024-03-06T00:05:39;9.10;99.90
22716;DHT22;11525;51.152;4.456;2024-03-06T00:08:05;9.10;99.90
22716;DHT22;11525;51.152;4.456;2024-03-06T00:10:30;9.10;99.90
22716;DHT22;11525;51.152;4.456;2024-03-06T00:12:56;9.10;99.90
22716;DHT22;11525;51.152;4.456;2024-03-06T00:15:22;9.00;99.90
22716;DHT22;11525;51.152;4.456;2024-03-06T00:17:48;8.90;99.90
22716;DHT22;11525;51.152;4.456;2024-03-06T00:20:14;8.90;99.90
22716;DHT22;11525;51.152;4.456;2024-03-06T00:22:40;8.90;99.90
22716;DHT22;11525;51.152;4.456;2024-03-06T00:25:06;8.90;99.90
22716;DHT22;11525;51.152;4.456;2024-03-06T00:27:31;8.90;99.90
22716;DHT22;11525;51.152;4.456;2024-03-06T00:29:57;8.80;99.90
22716;DHT22;11525;51.152;4.456;2024-03-06T00:32:23;8.80;99.90
22716;DHT22;11525;51.152;4.456;2024-03-06T00:34:49;8.80;99.90
22716;DHT22;11525;51.152;4.456;2024-03-06T00:37:15;8.80;99.90
22716;DHT22;11525;51.152;4.456;2024-03-06T00:39:40;8.80;99.90
22716;DHT22;11525;51.152;4.456;2024-03-06T00:42:06;8.70;99.90
22716;DHT22;11525;51.152;4.456;2024-03-06T00:44:34;8.60;99.90
22716;DHT22;11525;51.152;4.456;2024-03-06T00:47:00;8.50;99.90
22716;DHT22;11525;51.152;4.456;2024-03-06T00:49:25;8.50;99.90
22716;DHT22;11525;51.152;4.456;2024-03-06T00:51:51;8.50;99.90
22716;DHT22;11525;51.152;4.456;2024-03-06T00:54:17;8.40;99.90
22716;DHT22;11525;51.152;4.456;2024-03-06T00:56:43;8.30;99.90
22716;DHT22;11525;51.152;4.456;2024-03-06T00:59:08;8.30;99.90
22716;DHT22;11525;51.152;4.456;2024-03-06T01:01:34;8.30;99.90
22716;DHT22;11525;51.152;4.456;2024-03-06T01:04:00;8.20;99.90
22716;DHT22;11525;51.152;4.456;2024-03-06T01:06:26;8.20;99.90
22716;DHT22;11525;51.152;4.456;2024-03-06T01:08:51;8.10;99.90
22716;DHT22;11525;51.152;4.456;2024-03-06T01:11:17;8.00;99.90
22716;DHT22;11525;51.152;4.456;2024-03-06T01:13:42;8.00;99.90
22716;DHT22;11525;51.152;4.456;2024-03-06T01:16:08;7.90;99.90
22716;DHT22;11525;51.152;4.456;2024-03-06T01:18:34;8.00;99.90
22716;DHT22;11525;51.152;4.456;2024-03-06T01:20:59;7.90;99.90
22716;DHT22;11525;51.152;4.456;2024-03-06T01:23:25;7.80;99.90
22716;DHT22;11525;51.152;4.456;2024-03-06T01:25:51;7.80;99.90
22716;DHT22;11525;51.152;4.456;2024-03-06T01:28:16;7.70;99.90
22716;DHT22;11525;51.152;4.456;2024-03-06T01:30:43;7.60;99.90
22716;DHT22;11525;51.152;4.456;2024-03-06T01:33:08;7.60;99.90
22716;DHT22;11525;51.152;4.456;2024-03-06T01:35:35;7.50;99.90
22716;DHT22;11525;51.152;4.456;2024-03-06T01:38:01;7.50;99.90
22716;DHT22;11525;51.152;4.456;2024-03-06T01:40:27;7.40;99.90
22716;DHT22;11525;51.152;4.456;2024-03-06T01:42:54;7.40;99.90
22716;DHT22;11525;51.152;4.456;2024-03-06T01:45:20;7.40;99.90
22716;DHT22;11525;51.152;4.456;2024-03-06T01:47:45;7.30;99.90
22716;DHT22;11525;51.152;4.456;2024-03-06T01:50:12;7.20;99.90
22716;DHT22;11525;51.152;4.456;2024-03-06T01:52:39;7.20;99.90
22716;DHT22;11525;51.152;4.456;2024-03-06T01:55:06;7.20;99.90
22716;DHT22;11525;51.152;4.456;2024-03-06T01:57:33;7.10;99.90
22716;DHT22;11525;51.152;4.456;2024-03-06T02:00:00;7.10;99.90
22716;DHT22;11525;51.152;4.456;2024-03-06T02:02:26;7.00;99.90
22716;DHT22;11525;51.152;4.456;2024-03-06T02:04:53;7.00;99.90
22716;DHT22;11525;51.152;4.456;2024-03-06T02:07:20;6.90;99.90
22716;DHT22;11525;51.152;4.456;2024-03-06T02:09:47;7.00;99.90
22716;DHT22;11525;51.152;4.456;2024-03-06T02:12:14;7.00;99.90
22716;DHT22;11525;51.152;4.456;2024-03-06T02:14:40;7.00;99.90
22716;DHT22;11525;51.152;4.456;2024-03-06T02:17:05;6.90;99.90
22716;DHT22;11525;51.152;4.456;2024-03-06T02:19:42;6.90;99.90
22716;DHT22;11525;51.152;4.456;2024-03-06T02:22:10;6.80;99.90
22716;DHT22;11525;51.152;4.456;2024-03-06T02:24:36;6.80;99.90
22716;DHT22;11525;51.152;4.456;2024-03-06T02:27:05;6.60;99.90
22716;DHT22;11525;51.152;4.456;2024-03-06T02:29:32;6.60;99.90
22716;DHT22;11525;51.152;4.456;2024-03-06T02:31:58;6.60;99.90
22716;DHT22;11525;51.152;4.456;2024-03-06T02:34:24;6.50;99.90
22716;DHT22;11525;51.152;4.456;2024-03-06T02:36:51;6.50;99.90
22716;DHT22;11525;51.152;4.456;2024-03-06T02:39:17;6.40;99.90
22716;DHT22;11525;51.152;4.456;2024-03-06T02:41:43;6.40;99.90
22716;DHT22;11525;51.152;4.456;2024-03-06T02:44:08;6.50;99.90
22716;DHT22;11525;51.152;4.456;2024-03-06T02:46:34;6.50;99.90
22716;DHT22;11525;51.152;4.456;2024-03-06T02:49:00;6.40;99.90
22716;DHT22;11525;51.152;4.456;2024-03-06T02:51:26;6.40;99.90
22716;DHT22;11525;51.152;4.456;2024-03-06T02:53:51;6.40;99.90
22716;DHT22;11525;51.152;4.456;2024-03-06T02:56:19;6.30;99.90
22716;DHT22;11525;51.152;4.456;2024-03-06T02:58:45;6.20;99.90
22716;DHT22;11525;51.152;4.456;2024-03-06T03:01:11;6.20;99.90
22716;DHT22;11525;51.152;4.456;2024-03-06T03:03:40;6.20;99.90
22716;DHT22;11525;51.152;4.456;2024-03-06T03:06:06;6.30;99.90
22716;DHT22;11525;51.152;4.456;2024-03-06T03:08:32;6.20;99.90
22716;DHT22;11525;51.152;4.456;2024-03-06T03:10:58;6.10;99.90
22716;DHT22;11525;51.152;4.456;2024-03-06T03:13:23;6.10;99.90
22716;DHT22;11525;51.152;4.456;2024-03-06T03:15:49;6.00;99.90
22716;DHT22;11525;51.152;4.456;2024-03-06T03:18:16;6.00;99.90
22716;DHT22;11525;51.152;4.456;2024-03-06T03:20:42;6.10;99.90
22716;DHT22;11525;51.152;4.456;2024-03-06T03:23:08;5.90;99.90
22716;DHT22;11525;51.152;4.456;2024-03-06T03:25:37;6.00;99.90
22716;DHT22;11525;51.152;4.456;2024-03-06T03:28:03;5.90;99.90
22716;DHT22;11525;51.152;4.456;2024-03-06T03:30:30;5.80;99.90
22716;DHT22;11525;51.152;4.456;2024-03-06T03:32:57;5.70;99.90
22716;DHT22;11525;51.152;4.456;2024-03-06T03:35:23;5.60;99.90
22716;DHT22;11525;51.152;4.456;2024-03-06T03:37:53;5.60;99.90
22716;DHT22;11525;51.152;4.456;2024-03-06T03:40:19;5.60;99.90
22716;DHT22;11525;51.152;4.456;2024-03-06T03:42:45;5.50;99.90
22716;DHT22;11525;51.152;4.456;2024-03-06T03:45:11;5.40;99.90
22716;DHT22;11525;51.152;4.456;2024-03-06T03:47:37;5.40;99.90
22716;DHT22;11525;51.152;4.456;2024-03-06T03:50:03;5.30;99.90
22716;DHT22;11525;51.152;4.456;2024-03-06T03:52:29;5.30;99.90
22716;DHT22;11525;51.152;4.456;2024-03-06T03:54:55;5.30;99.90
22716;DHT22;11525;51.152;4.456;2024-03-06T03:57:21;5.30;99.90
22716;DHT22;11525;51.152;4.456;2024-03-06T03:59:46;5.30;99.90
22716;DHT22;11525;51.152;4.456;2024-03-06T04:02:12;5.30;99.90
22716;DHT22;11525;51.152;4.456;2024-03-06T04:04:38;5.30;99.90
22716;DHT22;11525;51.152;4.456;2024-03-06T04:07:03;5.30;99.90
22716;DHT22;11525;51.152;4.456;2024-03-06T04:09:32;5.20;99.90
22716;DHT22;11525;51.152;4.456;2024-03-06T04:11:57;5.10;99.90
22716;DHT22;11525;51.152;4.456;2024-03-06T04:14:23;5.00;99.90
22716;DHT22;11525;51.152;4.456;2024-03-06T04:16:50;5.00;99.90
22716;DHT22;11525;51.152;4.456;2024-03-06T04:19:15;5.00;99.90
22716;DHT22;11525;51.152;4.456;2024-03-06T04:21:44;5.00;99.90
22716;DHT22;11525;51.152;4.456;2024-03-06T04:24:10;5.10;99.90
22716;DHT22;11525;51.152;4.456;2024-03-06T04:26:35;5.10;99.90
22716;DHT22;11525;51.152;4.456;2024-03-06T04:29:01;5.00;99.90
22716;DHT22;11525;51.152;4.456;2024-03-06T04:31:28;4.90;99.90
22716;DHT22;11525;51.152;4.456;2024-03-06T04:33:54;4.90;99.90
22716;DHT22;11525;51.152;4.456;2024-03-06T04:36:19;4.90;99.90
22716;DHT22;11525;51.152;4.456;2024-03-06T04:38:45;4.90;99.90
22716;DHT22;11525;51.152;4.456;2024-03-06T04:41:11;4.90;99.90
22716;DHT22;11525;51.152;4.456;2024-03-06T04:43:36;4.90;99.90
22716;DHT22;11525;51.152;4.456;2024-03-06T04:46:03;4.80;99.90
22716;DHT22;11525;51.152;4.456;2024-03-06T04:48:29;4.90;99.90
22716;DHT22;11525;51.152;4.456;2024-03-06T04:50:55;4.90;99.90
22716;DHT22;11525;51.152;4.456;2024-03-06T04:53:20;4.80;99.90
22716;DHT22;11525;51.152;4.456;2024-03-06T04:55:46;4.80;99.90
22716;DHT22;11525;51.152;4.456;2024-03-06T04:58:13;4.80;99.90
22716;DHT22;11525;51.152;4.456;2024-03-06T05:00:38;4.80;99.90
22716;DHT22;11525;51.152;4.456;2024-03-06T05:03:04;4.90;99.90
22716;DHT22;11525;51.152;4.456;2024-03-06T05:05:30;4.90;99.90
22716;DHT22;11525;51.152;4.456;2024-03-06T05:07:57;4.90;99.90
22716;DHT22;11525;51.152;4.456;2024-03-06T05:10:23;4.90;99.90
22716;DHT22;11525;51.152;4.456;2024-03-06T05:12:48;4.90;99.90
22716;DHT22;11525;51.152;4.456;2024-03-06T05:15:14;4.90;99.90
22716;DHT22;11525;51.152;4.456;2024-03-06T05:17:40;4.90;99.90
22716;DHT22;11525;51.152;4.456;2024-03-06T05:20:06;4.90;99.90
22716;DHT22;11525;51.152;4.456;2024-03-06T05:22:32;4.80;99.90
22716;DHT22;11525;51.152;4.456;2024-03-06T05:24:58;4.80;99.90
22716;DHT22;11525;51.152;4.456;2024-03-06T05:27:24;4.80;99.90
22716;DHT22;11525;51.152;4.456;2024-03-06T05:29:50;4.80;99.90
22716;DHT22;11525;51.152;4.456;2024-03-06T05:32:16;4.80;99.90
22716;DHT22;11525;51.152;4.456;2024-03-06T05:34:42;4.80;99.90
22716;DHT22;11525;51.152;4.456;2024-03-06T05:37:07;4.80;99.90
22716;DHT22;11525;51.152;4.456;2024-03-06T05:39:34;4.80;99.90
22716;DHT22;11525;51.152;4.456;2024-03-06T05:42:04;4.70;99.90
22716;DHT22;11525;51.152;4.456;2024-03-06T05:44:30;4.60;99.90
22716;DHT22;11525;51.152;4.456;2024-03-06T05:46:58;4.60;99.90
22716;DHT22;11525;51.152;4.456;2024-03-06T05:49:24;4.50;99.90
22716;DHT22;11525;51.152;4.456;2024-03-06T05:51:50;4.50;99.90
22716;DHT22;11525;51.152;4.456;2024-03-06T05:54:16;4.50;99.90
22716;DHT22;11525;51.152;4.456;2024-03-06T05:56:42;4.50;99.90
22716;DHT22;11525;51.152;4.456;2024-03-06T05:59:08;4.50;99.90
22716;DHT22;11525;51.152;4.456;2024-03-06T06:01:34;4.50;99.90
22716;DHT22;11525;51.152;4.456;2024-03-06T06:04:01;4.50;99.90
22716;DHT22;11525;51.152;4.456;2024-03-06T06:06:27;4.60;99.90
22716;DHT22;11525;51.152;4.456;2024-03-06T06:08:52;4.70;99.90
22716;DHT22;11525;51.152;4.456;2024-03-06T06:11:18;4.80;99.90
22716;DHT22;11525;51.152;4.456;2024-03-06T06:13:44;4.90;99.90
22716;DHT22;11525;51.152;4.456;2024-03-06T06:16:10;4.90;99.90
22716;DHT22;11525;51.152;4.456;2024-03-06T06:18:35;4.90;99.90
22716;DHT22;11525;51.152;4.456;2024-03-06T06:21:01;4.90;99.90
22716;DHT22;11525;51.152;4.456;2024-03-06T06:23:27;4.90;99.90
22716;DHT22;11525;51.152;4.456;2024-03-06T06:25:53;5.00;99.90
22716;DHT22;11525;51.152;4.456;2024-03-06T06:28:19;5.00;99.90
22716;DHT22;11525;51.152;4.456;2024-03-06T06:30:44;5.00;99.90
22716;DHT22;11525;51.152;4.456;2024-03-06T06:33:10;5.10;99.90
22716;DHT22;11525;51.152;4.456;2024-03-06T06:35:36;5.20;99.90
22716;DHT22;11525;51.152;4.456;2024-03-06T06:38:02;5.20;99.90
22716;DHT22;11525;51.152;4.456;2024-03-06T06:40:28;5.20;99.90
22716;DHT22;11525;51.152;4.456;2024-03-06T06:42:54;5.30;99.90
22716;DHT22;11525;51.152;4.456;2024-03-06T06:45:20;5.40;99.90
22716;DHT22;11525;51.152;4.456;2024-03-06T06:47:48;5.50;99.90
22716;DHT22;11525;51.152;4.456;2024-03-06T06:50:14;5.70;99.90
22716;DHT22;11525;51.152;4.456;2024-03-06T06:52:41;5.80;99.90
22716;DHT22;11525;51.152;4.456;2024-03-06T06:55:07;5.90;99.90
22716;DHT22;11525;51.152;4.456;2024-03-06T06:57:37;6.00;99.90
22716;DHT22;11525;51.152;4.456;2024-03-06T07:00:03;6.10;99.90
22716;DHT22;11525;51.152;4.456;2024-03-06T07:02:37;6.20;99.90
22716;DHT22;11525;51.152;4.456;2024-03-06T07:05:04;6.20;99.90
22716;DHT22;11525;51.152;4.456;2024-03-06T07:07:30;6.20;99.90
22716;DHT22;11525;51.152;4.456;2024-03-06T07:09:55;6.20;99.90
22716;DHT22;11525;51.152;4.456;2024-03-06T07:12:21;6.30;99.90
22716;DHT22;11525;51.152;4.456;2024-03-06T07:14:47;6.30;99.90
22716;DHT22;11525;51.152;4.456;2024-03-06T07:17:13;6.40;99.90
22716;DHT22;11525;51.152;4.456;2024-03-06T07:19:38;6.60;99.90
22716;DHT22;11525;51.152;4.456;2024-03-06T07:22:05;6.80;99.90
22716;DHT22;11525;51.152;4.456;2024-03-06T07:24:31;7.00;99.90
22716;DHT22;11525;51.152;4.456;2024-03-06T07:26:56;7.00;99.90
22716;DHT22;11525;51.152;4.456;2024-03-06T07:29:22;7.10;99.90
22716;DHT22;11525;51.152;4.456;2024-03-06T07:31:47;7.40;99.90
22716;DHT22;11525;51.152;4.456;2024-03-06T07:34:13;7.30;99.90
22716;DHT22;11525;51.152;4.456;2024-03-06T07:36:40;7.50;99.90
22716;DHT22;11525;51.152;4.456;2024-03-06T07:39:06;7.50;99.90
22716;DHT22;11525;51.152;4.456;2024-03-06T07:41:35;7.80;99.90
22716;DHT22;11525;51.152;4.456;2024-03-06T07:44:00;8.80;99.90
22716;DHT22;11525;51.152;4.456;2024-03-06T07:46:26;9.50;99.90
22716;DHT22;11525;51.152;4.456;2024-03-06T07:48:52;10.80;99.90
22716;DHT22;11525;51.152;4.456;2024-03-06T07:51:18;10.90;99.90
22716;DHT22;11525;51.152;4.456;2024-03-06T07:53:44;11.70;99.90
22716;DHT22;11525;51.152;4.456;2024-03-06T07:56:12;11.80;99.90
22716;DHT22;11525;51.152;4.456;2024-03-06T07:58:39;12.20;99.90
22716;DHT22;11525;51.152;4.456;2024-03-06T08:01:06;13.00;99.90
22716;DHT22;11525;51.152;4.456;2024-03-06T08:03:33;13.50;99.90
22716;DHT22;11525;51.152;4.456;2024-03-06T08:05:59;13.40;99.90
22716;DHT22;11525;51.152;4.456;2024-03-06T08:08:25;13.90;99.90
22716;DHT22;11525;51.152;4.456;2024-03-06T08:10:51;14.00;99.90
22716;DHT22;11525;51.152;4.456;2024-03-06T08:13:16;14.70;99.90
22716;DHT22;11525;51.152;4.456;2024-03-06T08:15:44;14.90;99.90
22716;DHT22;11525;51.152;4.456;2024-03-06T08:18:10;15.20;99.90
22716;DHT22;11525;51.152;4.456;2024-03-06T08:20:36;15.80;99.90
22716;DHT22;11525;51.152;4.456;2024-03-06T08:23:02;16.90;99.90
22716;DHT22;11525;51.152;4.456;2024-03-06T08:25:28;17.80;99.90
22716;DHT22;11525;51.152;4.456;2024-03-06T08:27:54;18.30;99.90
22716;DHT22;11525;51.152;4.456;2024-03-06T08:30:20;18.70;99.90
22716;DHT22;11525;51.152;4.456;2024-03-06T08:32:45;18.80;99.90
22716;DHT22;11525;51.152;4.456;2024-03-06T08:35:12;18.60;99.90
22716;DHT22;11525;51.152;4.456;2024-03-06T08:37:39;18.30;99.90
22716;DHT22;11525;51.152;4.456;2024-03-06T08:40:08;17.70;99.90
22716;DHT22;11525;51.152;4.456;2024-03-06T08:42:43;17.30;99.90
22716;DHT22;11525;51.152;4.456;2024-03-06T08:45:09;17.10;99.90
22716;DHT22;11525;51.152;4.456;2024-03-06T08:47:35;17.40;99.90
22716;DHT22;11525;51.152;4.456;2024-03-06T08:50:01;18.00;99.90
22716;DHT22;11525;51.152;4.456;2024-03-06T08:52:28;18.40;99.90
22716;DHT22;11525;51.152;4.456;2024-03-06T08:54:54;18.20;99.90
22716;DHT22;11525;51.152;4.456;2024-03-06T08:57:19;18.80;99.80
22716;DHT22;11525;51.152;4.456;2024-03-06T08:59:47;19.50;97.80
22716;DHT22;11525;51.152;4.456;2024-03-06T09:02:14;20.70;93.70
22716;DHT22;11525;51.152;4.456;2024-03-06T09:04:41;21.50;91.50
22716;DHT22;11525;51.152;4.456;2024-03-06T09:07:07;22.80;83.90
22716;DHT22;11525;51.152;4.456;2024-03-06T09:09:33;23.20;77.30
22716;DHT22;11525;51.152;4.456;2024-03-06T09:12:09;23.40;74.30
22716;DHT22;11525;51.152;4.456;2024-03-06T09:14:40;23.90;71.00
22716;DHT22;11525;51.152;4.456;2024-03-06T09:17:06;24.50;68.10
22716;DHT22;11525;51.152;4.456;2024-03-06T09:19:35;24.80;65.30
22716;DHT22;11525;51.152;4.456;2024-03-06T09:22:01;24.90;64.70
22716;DHT22;11525;51.152;4.456;2024-03-06T09:24:28;25.00;61.00
22716;DHT22;11525;51.152;4.456;2024-03-06T09:26:54;25.70;59.70
22716;DHT22;11525;51.152;4.456;2024-03-06T09:29:19;26.40;57.30
22716;DHT22;11525;51.152;4.456;2024-03-06T09:31:46;26.80;54.70
22716;DHT22;11525;51.152;4.456;2024-03-06T09:34:13;27.00;53.40
22716;DHT22;11525;51.152;4.456;2024-03-06T09:36:40;26.90;53.30
22716;DHT22;11525;51.152;4.456;2024-03-06T09:39:05;27.40;52.70
22716;DHT22;11525;51.152;4.456;2024-03-06T09:41:33;27.30;52.10
22716;DHT22;11525;51.152;4.456;2024-03-06T09:44:00;27.40;51.30
22716;DHT22;11525;51.152;4.456;2024-03-06T09:46:29;27.50;50.90
22716;DHT22;11525;51.152;4.456;2024-03-06T09:48:54;27.40;50.40
22716;DHT22;11525;51.152;4.456;2024-03-06T09:51:21;27.00;49.40
22716;DHT22;11525;51.152;4.456;2024-03-06T09:53:47;26.90;50.20
22716;DHT22;11525;51.152;4.456;2024-03-06T09:56:17;26.90;49.50
22716;DHT22;11525;51.152;4.456;2024-03-06T09:58:45;26.80;49.70
22716;DHT22;11525;51.152;4.456;2024-03-06T10:01:12;26.30;51.10
22716;DHT22;11525;51.152;4.456;2024-03-06T10:03:39;26.70;50.70
22716;DHT22;11525;51.152;4.456;2024-03-06T10:06:07;27.10;49.20
22716;DHT22;11525;51.152;4.456;2024-03-06T10:08:33;27.40;48.80
22716;DHT22;11525;51.152;4.456;2024-03-06T10:10:59;27.00;48.00
22716;DHT22;11525;51.152;4.456;2024-03-06T10:13:25;26.90;49.90
22716;DHT22;11525;51.152;4.456;2024-03-06T10:16:05;27.20;48.90
22716;DHT22;11525;51.152;4.456;2024-03-06T10:18:35;27.50;47.50
22716;DHT22;11525;51.152;4.456;2024-03-06T10:21:04;27.50;48.40
22716;DHT22;11525;51.152;4.456;2024-03-06T10:23:31;27.90;46.80
22716;DHT22;11525;51.152;4.456;2024-03-06T10:25:57;27.80;47.40
22716;DHT22;11525;51.152;4.456;2024-03-06T10:28:23;27.40;46.80
22716;DHT22;11525;51.152;4.456;2024-03-06T10:30:50;24.80;50.00
22716;DHT22;11525;51.152;4.456;2024-03-06T10:33:18;23.20;53.90
22716;DHT22;11525;51.152;4.456;2024-03-06T10:35:45;23.40;55.20
22716;DHT22;11525;51.152;4.456;2024-03-06T10:38:12;24.30;53.40
22716;DHT22;11525;51.152;4.456;2024-03-06T10:40:39;24.60;52.70
22716;DHT22;11525;51.152;4.456;2024-03-06T10:43:07;24.60;50.60
22716;DHT22;11525;51.152;4.456;2024-03-06T10:48:08;22.00;59.30
22716;DHT22;11525;51.152;4.456;2024-03-06T10:50:39;22.00;58.50
22716;DHT22;11525;51.152;4.456;2024-03-06T10:53:09;21.40;59.50
22716;DHT22;11525;51.152;4.456;2024-03-06T10:55:38;20.50;62.70
22716;DHT22;11525;51.152;4.456;2024-03-06T10:58:06;19.30;68.60
22716;DHT22;11525;51.152;4.456;2024-03-06T11:00:42;19.10;67.40
22716;DHT22;11525;51.152;4.456;2024-03-06T11:03:11;18.20;73.20
22716;DHT22;11525;51.152;4.456;2024-03-06T11:05:42;17.50;78.20
22716;DHT22;11525;51.152;4.456;2024-03-06T11:08:10;17.00;81.60
22716;DHT22;11525;51.152;4.456;2024-03-06T11:10:38;16.40;84.10
22716;DHT22;11525;51.152;4.456;2024-03-06T11:13:21;16.20;86.40
22716;DHT22;11525;51.152;4.456;2024-03-06T11:15:48;16.10;87.40
22716;DHT22;11525;51.152;4.456;2024-03-06T11:23:33;15.70;90.70
22716;DHT22;11525;51.152;4.456;2024-03-06T11:26:01;15.60;90.90
22716;DHT22;11525;51.152;4.456;2024-03-06T11:28:33;15.10;91.70
22716;DHT22;11525;51.152;4.456;2024-03-06T11:33:39;14.90;96.20
22716;DHT22;11525;51.152;4.456;2024-03-06T11:39:07;15.10;98.30
22716;DHT22;11525;51.152;4.456;2024-03-06T11:41:50;15.40;96.30
22716;DHT22;11525;51.152;4.456;2024-03-06T11:44:20;15.60;94.10
22716;DHT22;11525;51.152;4.456;2024-03-06T11:46:47;15.90;92.00
22716;DHT22;11525;51.152;4.456;2024-03-06T11:49:24;15.70;93.00
22716;DHT22;11525;51.152;4.456;2024-03-06T11:51:55;15.50;93.90
22716;DHT22;11525;51.152;4.456;2024-03-06T11:54:22;15.20;94.50
22716;DHT22;11525;51.152;4.456;2024-03-06T11:56:59;15.20;95.80
22716;DHT22;11525;51.152;4.456;2024-03-06T11:59:26;15.50;96.10
22716;DHT22;11525;51.152;4.456;2024-03-06T12:01:53;15.60;93.90
22716;DHT22;11525;51.152;4.456;2024-03-06T12:04:23;16.00;93.40
22716;DHT22;11525;51.152;4.456;2024-03-06T12:06:50;16.20;93.60
22716;DHT22;11525;51.152;4.456;2024-03-06T12:09:16;16.30;91.70
22716;DHT22;11525;51.152;4.456;2024-03-06T12:11:42;16.20;91.90
22716;DHT22;11525;51.152;4.456;2024-03-06T12:14:16;16.20;91.30
22716;DHT22;11525;51.152;4.456;2024-03-06T12:17:03;16.00;92.10
22716;DHT22;11525;51.152;4.456;2024-03-06T12:19:32;15.90;92.50
22716;DHT22;11525;51.152;4.456;2024-03-06T12:22:04;15.90;93.00
22716;DHT22;11525;51.152;4.456;2024-03-06T12:24:30;15.80;93.20
22716;DHT22;11525;51.152;4.456;2024-03-06T12:27:04;15.80;92.80
22716;DHT22;11525;51.152;4.456;2024-03-06T12:29:31;15.50;91.90
22716;DHT22;11525;51.152;4.456;2024-03-06T12:32:01;15.70;91.00
22716;DHT22;11525;51.152;4.456;2024-03-06T12:34:27;15.30;92.20
22716;DHT22;11525;51.152;4.456;2024-03-06T12:36:53;15.00;92.00
22716;DHT22;11525;51.152;4.456;2024-03-06T12:39:19;15.00;92.30
22716;DHT22;11525;51.152;4.456;2024-03-06T12:41:51;15.00;92.80
22716;DHT22;11525;51.152;4.456;2024-03-06T12:44:20;14.80;92.40
22716;DHT22;11525;51.152;4.456;2024-03-06T12:46:46;14.40;92.90
22716;DHT22;11525;51.152;4.456;2024-03-06T12:49:11;14.60;93.70
22716;DHT22;11525;51.152;4.456;2024-03-06T12:51:37;14.70;94.60
22716;DHT22;11525;51.152;4.456;2024-03-06T12:54:03;15.00;95.00
22716;DHT22;11525;51.152;4.456;2024-03-06T12:56:29;15.10;94.80
22716;DHT22;11525;51.152;4.456;2024-03-06T12:58:54;15.20;94.20
22716;DHT22;11525;51.152;4.456;2024-03-06T13:01:20;15.30;92.70
22716;DHT22;11525;51.152;4.456;2024-03-06T13:03:46;15.20;92.20
22716;DHT22;11525;51.152;4.456;2024-03-06T13:06:11;15.30;92.30
22716;DHT22;11525;51.152;4.456;2024-03-06T13:08:37;15.30;92.20
22716;DHT22;11525;51.152;4.456;2024-03-06T13:11:03;15.30;92.00
22716;DHT22;11525;51.152;4.456;2024-03-06T13:13:29;15.10;91.70
22716;DHT22;11525;51.152;4.456;2024-03-06T13:15:58;14.90;91.80
22716;DHT22;11525;51.152;4.456;2024-03-06T13:18:24;14.40;92.90
22716;DHT22;11525;51.152;4.456;2024-03-06T13:20:51;13.80;94.30
22716;DHT22;11525;51.152;4.456;2024-03-06T13:23:17;13.60;95.80
22716;DHT22;11525;51.152;4.456;2024-03-06T13:25:42;13.70;97.10
22716;DHT22;11525;51.152;4.456;2024-03-06T13:28:09;14.20;96.90
22716;DHT22;11525;51.152;4.456;2024-03-06T13:30:34;14.30;95.60
22716;DHT22;11525;51.152;4.456;2024-03-06T13:33:01;14.50;95.90
22716;DHT22;11525;51.152;4.456;2024-03-06T13:35:26;14.50;98.20
22716;DHT22;11525;51.152;4.456;2024-03-06T13:37:52;14.60;96.60
22716;DHT22;11525;51.152;4.456;2024-03-06T13:40:19;14.50;96.00
22716;DHT22;11525;51.152;4.456;2024-03-06T13:42:45;14.60;95.10
22716;DHT22;11525;51.152;4.456;2024-03-06T13:45:11;14.50;95.10
22716;DHT22;11525;51.152;4.456;2024-03-06T13:47:41;14.60;95.40
22716;DHT22;11525;51.152;4.456;2024-03-06T13:50:08;14.80;95.40
22716;DHT22;11525;51.152;4.456;2024-03-06T13:52:34;14.90;95.00
22716;DHT22;11525;51.152;4.456;2024-03-06T13:55:00;15.10;94.30
22716;DHT22;11525;51.152;4.456;2024-03-06T13:57:32;15.10;93.10
22716;DHT22;11525;51.152;4.456;2024-03-06T14:00:00;15.20;91.80
22716;DHT22;11525;51.152;4.456;2024-03-06T14:02:26;15.20;91.50
22716;DHT22;11525;51.152;4.456;2024-03-06T14:04:52;15.40;90.60
22716;DHT22;11525;51.152;4.456;2024-03-06T14:07:17;15.60;90.20
22716;DHT22;11525;51.152;4.456;2024-03-06T14:09:43;15.80;89.90
22716;DHT22;11525;51.152;4.456;2024-03-06T14:12:09;15.60;86.10
22716;DHT22;11525;51.152;4.456;2024-03-06T14:14:35;15.40;86.10
22716;DHT22;11525;51.152;4.456;2024-03-06T14:17:00;15.40;85.90
22716;DHT22;11525;51.152;4.456;2024-03-06T14:19:26;15.20;87.20
22716;DHT22;11525;51.152;4.456;2024-03-06T14:21:51;15.20;85.80
22716;DHT22;11525;51.152;4.456;2024-03-06T14:24:17;15.10;88.00
22716;DHT22;11525;51.152;4.456;2024-03-06T14:26:44;15.10;86.60
22716;DHT22;11525;51.152;4.456;2024-03-06T14:29:09;14.60;88.60
22716;DHT22;11525;51.152;4.456;2024-03-06T14:31:35;14.20;92.20
22716;DHT22;11525;51.152;4.456;2024-03-06T14:34:01;13.50;95.50
22716;DHT22;11525;51.152;4.456;2024-03-06T14:36:27;13.60;95.90
22716;DHT22;11525;51.152;4.456;2024-03-06T14:38:52;13.80;94.60
22716;DHT22;11525;51.152;4.456;2024-03-06T14:41:21;13.70;95.20
22716;DHT22;11525;51.152;4.456;2024-03-06T14:43:47;13.60;94.90
22716;DHT22;11525;51.152;4.456;2024-03-06T14:46:13;13.30;94.80
22716;DHT22;11525;51.152;4.456;2024-03-06T14:48:39;13.20;95.40
22716;DHT22;11525;51.152;4.456;2024-03-06T14:51:06;12.90;96.60
22716;DHT22;11525;51.152;4.456;2024-03-06T14:53:32;12.90;95.40
22716;DHT22;11525;51.152;4.456;2024-03-06T14:55:58;12.90;94.20
22716;DHT22;11525;51.152;4.456;2024-03-06T14:58:24;13.10;93.90
22716;DHT22;11525;51.152;4.456;2024-03-06T15:00:50;13.20;93.10
22716;DHT22;11525;51.152;4.456;2024-03-06T15:03:18;13.20;92.40
22716;DHT22;11525;51.152;4.456;2024-03-06T15:05:44;13.40;92.80
22716;DHT22;11525;51.152;4.456;2024-03-06T15:08:11;13.40;93.10
22716;DHT22;11525;51.152;4.456;2024-03-06T15:10:37;13.20;94.70
22716;DHT22;11525;51.152;4.456;2024-03-06T15:13:03;13.30;94.90
22716;DHT22;11525;51.152;4.456;2024-03-06T15:15:29;13.10;94.70
22716;DHT22;11525;51.152;4.456;2024-03-06T15:17:56;12.90;95.30
22716;DHT22;11525;51.152;4.456;2024-03-06T15:20:22;12.80;95.20
22716;DHT22;11525;51.152;4.456;2024-03-06T15:22:48;13.00;95.80
22716;DHT22;11525;51.152;4.456;2024-03-06T15:25:14;13.00;96.20
22716;DHT22;11525;51.152;4.456;2024-03-06T15:27:40;13.00;97.20
22716;DHT22;11525;51.152;4.456;2024-03-06T15:30:08;13.20;96.90
22716;DHT22;11525;51.152;4.456;2024-03-06T15:32:34;13.20;95.50
22716;DHT22;11525;51.152;4.456;2024-03-06T15:35:01;13.30;94.90
22716;DHT22;11525;51.152;4.456;2024-03-06T15:37:29;12.90;95.90
22716;DHT22;11525;51.152;4.456;2024-03-06T15:39:55;13.00;96.30
22716;DHT22;11525;51.152;4.456;2024-03-06T15:42:21;13.20;96.20
22716;DHT22;11525;51.152;4.456;2024-03-06T15:44:48;13.30;95.40
22716;DHT22;11525;51.152;4.456;2024-03-06T15:47:15;13.10;96.20